Time;durP1;ratioP1;P1;durP2;ratioP2;P2;SDS_P1;SDS_P2;PMS_P1;PMS_P2;Temp;Humidity;BMP_temperature;BMP_pressure;BME280_temperature;BME280_humidity;BME280_pressure;Samples;Min_cycle;Max_cycle;Signal;HPM_P1;HPM_P2
2023/09/08 00:00:57;;;;;;;0.73;0.30;;;18.30;99.90;;;;;;5106143;28;20031;-70
2023/09/08 00:03:23;;;;;;;0.77;0.40;;;18.30;99.90;;;;;;5110055;28;20043;-69
2023/09/08 00:05:49;;;;;;;0.73;0.22;;;18.20;99.90;;;;;;5091043;27;20081;-69
2023/09/08 00:08:15;;;;;;;1.08;0.32;;;18.20;99.90;;;;;;5129730;27;20057;-69
2023/09/08 00:10:40;;;;;;;0.57;0.35;;;18.20;99.90;;;;;;5130910;27;20054;-70
2023/09/08 00:13:06;;;;;;;0.93;0.40;;;18.10;99.90;;;;;;5111183;27;20050;-70
2023/09/08 00:15:36;;;;;;;0.28;0.10;;;18.10;99.90;;;;;;5113471;27;20498;-69
2023/09/08 00:18:03;;;;;;;0.70;0.35;;;18.10;99.90;;;;;;5111739;27;20157;-69
2023/09/08 00:20:28;;;;;;;0.73;0.25;;;18.10;99.90;;;;;;5112800;27;20467;-70
2023/09/08 00:22:54;;;;;;;0.73;0.40;;;18.10;99.90;;;;;;5111422;27;20035;-69
2023/09/08 00:25:20;;;;;;;0.68;0.30;;;18.10;99.90;;;;;;5113710;27;20049;-69
2023/09/08 00:27:46;;;;;;;0.63;0.40;;;18.10;99.90;;;;;;5131475;27;20039;-70
2023/09/08 00:30:12;;;;;;;0.73;0.50;;;18.00;99.90;;;;;;5113071;27;20497;-69
2023/09/08 00:32:38;;;;;;;0.77;0.30;;;18.00;99.90;;;;;;5113383;27;20169;-69
2023/09/08 00:35:06;;;;;;;0.85;0.40;;;18.00;99.90;;;;;;5109636;27;20110;-69
2023/09/08 00:37:32;;;;;;;0.40;0.20;;;17.90;99.90;;;;;;5113338;27;20113;-69
2023/09/08 00:39:57;;;;;;;1.30;0.60;;;17.90;99.90;;;;;;5130991;27;20168;-69
2023/09/08 00:42:23;;;;;;;0.43;0.20;;;17.80;99.90;;;;;;5121725;27;20027;-69
2023/09/08 00:44:49;;;;;;;0.57;0.22;;;17.80;99.90;;;;;;5113839;27;20045;-70
2023/09/08 00:47:15;;;;;;;1.23;0.63;;;17.70;99.90;;;;;;5135639;27;20048;-69
2023/09/08 00:49:41;;;;;;;1.42;0.35;;;17.70;99.90;;;;;;5109476;27;20126;-69
2023/09/08 00:52:07;;;;;;;4.22;0.40;;;17.70;99.90;;;;;;5110898;27;20044;-70
2023/09/08 00:54:33;;;;;;;1.30;0.45;;;17.60;99.90;;;;;;5113061;27;20035;-69
2023/09/08 00:57:02;;;;;;;1.27;0.88;;;17.60;99.90;;;;;;5109185;27;20075;-70
2023/09/08 00:59:28;;;;;;;1.17;0.50;;;17.50;99.90;;;;;;5113305;27;20062;-69
2023/09/08 01:01:54;;;;;;;1.67;0.40;;;17.50;99.90;;;;;;5113189;27;20047;-69
2023/09/08 01:04:20;;;;;;;0.22;0.20;;;17.50;99.90;;;;;;5109119;27;21033;-70
2023/09/08 01:06:47;;;;;;;0.55;0.30;;;17.40;99.90;;;;;;5130457;27;20135;-69
2023/09/08 01:09:13;;;;;;;1.50;0.52;;;17.40;99.90;;;;;;5113636;27;20042;-69
2023/09/08 01:11:39;;;;;;;0.55;0.40;;;17.30;99.90;;;;;;5107835;27;20043;-69
2023/09/08 01:14:05;;;;;;;4.47;0.47;;;17.40;99.90;;;;;;5113237;27;20042;-69
2023/09/08 01:16:31;;;;;;;1.30;0.50;;;17.40;99.90;;;;;;5112572;27;20035;-69
2023/09/08 01:18:57;;;;;;;1.23;0.50;;;17.40;99.90;;;;;;5091709;27;20379;-69
2023/09/08 01:21:39;;;;;;;1.13;0.22;;;17.40;99.90;;;;;;5111942;27;20054;-69
2023/09/08 01:24:35;;;;;;;0.55;0.20;;;17.30;99.90;;;;;;5113165;27;20062;-70
2023/09/08 01:27:01;;;;;;;0.80;0.40;;;17.30;99.90;;;;;;5112749;27;20483;-69
2023/09/08 01:29:29;;;;;;;1.10;0.40;;;17.30;99.90;;;;;;5095733;27;20044;-70
2023/09/08 01:31:55;;;;;;;0.85;0.40;;;17.30;99.90;;;;;;5112457;27;20058;-69
2023/09/08 01:34:21;;;;;;;1.42;0.43;;;17.20;99.90;;;;;;5112155;27;20035;-69
2023/09/08 01:36:48;;;;;;;1.02;0.55;;;17.20;99.90;;;;;;5112234;27;20451;-69
2023/09/08 01:39:13;;;;;;;0.47;0.30;;;17.20;99.90;;;;;;5113482;27;20126;-69
2023/09/08 01:41:39;;;;;;;1.10;0.35;;;17.20;99.90;;;;;;5112663;27;20577;-69
2023/09/08 01:44:07;;;;;;;0.85;0.43;;;17.10;99.90;;;;;;5112504;27;20352;-69
2023/09/08 01:46:34;;;;;;;1.13;0.60;;;17.10;99.90;;;;;;5110407;27;20051;-69
2023/09/08 01:49:00;;;;;;;0.70;0.30;;;17.10;99.90;;;;;;5111252;27;20079;-69
2023/09/08 01:51:25;;;;;;;3.30;0.60;;;17.00;99.90;;;;;;5110188;27;20074;-69
2023/09/08 01:53:51;;;;;;;1.58;0.60;;;17.00;99.90;;;;;;5112259;27;20091;-69
2023/09/08 01:56:17;;;;;;;1.05;0.50;;;17.00;99.90;;;;;;5128553;27;20035;-69
2023/09/08 01:58:42;;;;;;;0.73;0.30;;;16.90;99.90;;;;;;5109369;27;20371;-69
2023/09/08 02:01:08;;;;;;;0.70;0.45;;;16.90;99.90;;;;;;5128650;27;20042;-70
2023/09/08 02:03:34;;;;;;;0.77;0.35;;;16.90;99.90;;;;;;5108904;27;20031;-69
2023/09/08 02:06:00;;;;;;;1.02;0.40;;;16.90;99.90;;;;;;5110373;27;20092;-69
2023/09/08 02:08:25;;;;;;;2.13;0.70;;;16.80;99.90;;;;;;5110644;27;20031;-69
2023/09/08 02:10:51;;;;;;;1.42;0.63;;;16.90;99.90;;;;;;5110723;27;20069;-69
2023/09/08 02:13:17;;;;;;;1.02;0.60;;;16.80;99.90;;;;;;5110057;27;20107;-70
2023/09/08 02:15:49;;;;;;;0.88;0.50;;;16.80;99.90;;;;;;5110564;27;20104;-69
2023/09/08 02:18:14;;;;;;;0.93;0.55;;;16.80;99.90;;;;;;5107758;27;20035;-69
2023/09/08 02:20:40;;;;;;;1.35;0.57;;;16.80;99.90;;;;;;5110693;27;20118;-69
2023/09/08 02:23:07;;;;;;;1.33;0.50;;;16.70;99.90;;;;;;5109021;27;20511;-69
2023/09/08 02:25:32;;;;;;;0.98;0.35;;;16.70;99.90;;;;;;5112051;27;20073;-69
2023/09/08 02:27:58;;;;;;;1.15;0.68;;;16.70;99.90;;;;;;5091972;27;20039;-69
2023/09/08 02:30:24;;;;;;;1.10;0.40;;;16.70;99.90;;;;;;5111444;27;20031;-69
2023/09/08 02:32:50;;;;;;;1.67;0.88;;;16.60;99.90;;;;;;5112487;27;20123;-69
2023/09/08 02:35:16;;;;;;;0.22;0.20;;;16.60;99.90;;;;;;5104914;27;20042;-69
2023/09/08 02:37:42;;;;;;;0.93;0.60;;;16.60;99.90;;;;;;5129556;27;20031;-69
2023/09/08 02:40:07;;;;;;;1.25;0.47;;;16.50;99.90;;;;;;5112093;27;20491;-69
2023/09/08 02:42:33;;;;;;;1.02;0.55;;;16.50;99.90;;;;;;5111988;27;20042;-69
2023/09/08 02:44:59;;;;;;;1.02;0.57;;;16.50;99.90;;;;;;5092744;27;20046;-69
2023/09/08 02:47:25;;;;;;;1.13;0.60;;;16.50;99.90;;;;;;5109413;27;20456;-69
2023/09/08 02:49:50;;;;;;;0.63;0.32;;;16.40;99.90;;;;;;5110314;27;20045;-69
2023/09/08 02:52:19;;;;;;;0.68;0.45;;;16.40;99.90;;;;;;5106501;27;20039;-69
2023/09/08 02:54:45;;;;;;;1.27;0.40;;;16.40;99.90;;;;;;5108638;27;20502;-69
2023/09/08 02:57:10;;;;;;;0.70;0.40;;;16.40;99.90;;;;;;5108408;27;20039;-69
2023/09/08 02:59:36;;;;;;;0.70;0.30;;;16.40;99.90;;;;;;5107720;27;20031;-69
2023/09/08 03:02:02;;;;;;;1.20;0.50;;;16.40;99.90;;;;;;5106474;27;20083;-69
2023/09/08 03:04:28;;;;;;;0.68;0.63;;;16.40;99.90;;;;;;5110271;27;20106;-69
2023/09/08 03:06:53;;;;;;;0.60;0.30;;;16.40;99.90;;;;;;5108387;27;20047;-69
2023/09/08 03:09:19;;;;;;;1.30;0.63;;;16.30;99.90;;;;;;5092314;27;20496;-69
2023/09/08 03:11:45;;;;;;;1.20;0.65;;;16.30;99.90;;;;;;5128679;27;20512;-69
2023/09/08 03:14:10;;;;;;;0.70;0.38;;;16.30;99.90;;;;;;5108317;28;20114;-69
2023/09/08 03:16:36;;;;;;;0.77;0.50;;;16.30;99.90;;;;;;5110681;27;20082;-69
2023/09/08 03:19:02;;;;;;;0.40;0.20;;;16.30;99.90;;;;;;5109576;27;20035;-69
2023/09/08 03:21:27;;;;;;;1.20;0.50;;;16.20;99.90;;;;;;5106233;27;20124;-69
2023/09/08 03:23:53;;;;;;;0.55;0.38;;;16.30;99.90;;;;;;5125856;27;20029;-69
2023/09/08 03:26:19;;;;;;;0.63;0.43;;;16.20;99.90;;;;;;5110574;28;20039;-70
2023/09/08 03:28:45;;;;;;;1.05;0.52;;;16.30;99.90;;;;;;5110311;28;20035;-69
2023/09/08 03:31:10;;;;;;;1.70;0.50;;;16.30;99.90;;;;;;5110079;28;20039;-69
2023/09/08 03:33:36;;;;;;;0.63;0.40;;;16.20;99.90;;;;;;5092000;28;20088;-69
2023/09/08 03:36:02;;;;;;;0.95;0.50;;;16.20;99.90;;;;;;5124728;28;20043;-69
2023/09/08 03:38:28;;;;;;;1.88;0.50;;;16.20;99.90;;;;;;5109427;28;20092;-69
2023/09/08 03:40:53;;;;;;;1.58;0.70;;;16.10;99.90;;;;;;5106636;27;20071;-69
2023/09/08 03:43:19;;;;;;;1.25;0.65;;;16.20;99.90;;;;;;5114608;27;20042;-69
2023/09/08 03:45:45;;;;;;;0.77;0.45;;;16.10;99.90;;;;;;5112805;27;20046;-69
2023/09/08 03:48:11;;;;;;;1.25;0.65;;;16.10;99.90;;;;;;5128942;27;20051;-69
2023/09/08 03:50:36;;;;;;;1.23;0.43;;;16.10;99.90;;;;;;5110594;27;20043;-69
2023/09/08 03:53:02;;;;;;;1.00;0.47;;;16.00;99.90;;;;;;5110532;27;20488;-69
2023/09/08 03:55:28;;;;;;;1.08;0.57;;;16.00;99.90;;;;;;5111229;27;20496;-69
2023/09/08 03:57:54;;;;;;;0.68;0.35;;;16.00;99.90;;;;;;5132354;27;20135;-69
2023/09/08 04:00:21;;;;;;;1.23;0.52;;;16.00;99.90;;;;;;5126998;27;20077;-69
2023/09/08 04:02:47;;;;;;;0.60;0.40;;;16.00;99.90;;;;;;5115072;27;20372;-69
2023/09/08 04:05:13;;;;;;;1.40;0.60;;;16.00;99.90;;;;;;5132368;27;20092;-69
2023/09/08 04:07:38;;;;;;;1.10;0.60;;;15.90;99.90;;;;;;5111713;27;20487;-69
2023/09/08 04:10:05;;;;;;;0.77;0.47;;;16.00;99.90;;;;;;5096072;27;20031;-69
2023/09/08 04:12:30;;;;;;;1.55;0.55;;;15.90;99.90;;;;;;5112292;27;20080;-69
2023/09/08 04:14:56;;;;;;;0.57;0.30;;;15.90;99.90;;;;;;5112472;27;20031;-69
2023/09/08 04:17:22;;;;;;;0.95;0.50;;;15.90;99.90;;;;;;5110391;27;20043;-69
2023/09/08 04:19:48;;;;;;;1.58;0.77;;;15.90;99.90;;;;;;5113295;27;20039;-69
2023/09/08 04:22:13;;;;;;;0.90;0.55;;;15.80;99.90;;;;;;5095289;27;20427;-69
2023/09/08 04:24:39;;;;;;;1.25;0.63;;;15.80;99.90;;;;;;5130537;27;20130;-69
2023/09/08 04:27:05;;;;;;;1.35;0.65;;;15.80;99.90;;;;;;5109763;27;20031;-69
2023/09/08 04:29:30;;;;;;;1.75;0.95;;;15.80;99.90;;;;;;5114833;27;20039;-69
2023/09/08 04:31:56;;;;;;;1.27;0.57;;;15.80;99.90;;;;;;5113114;27;20027;-69
2023/09/08 04:34:22;;;;;;;1.77;0.88;;;15.80;99.90;;;;;;5113603;27;20537;-69
2023/09/08 04:36:47;;;;;;;1.08;0.55;;;15.70;99.90;;;;;;5130793;27;20043;-69
2023/09/08 04:39:15;;;;;;;1.10;0.38;;;15.70;99.90;;;;;;5113400;27;20042;-69
2023/09/08 04:41:40;;;;;;;0.98;0.40;;;15.70;99.90;;;;;;5112902;27;20050;-69
2023/09/08 04:44:06;;;;;;;1.23;0.63;;;15.70;99.90;;;;;;5112608;27;20047;-69
2023/09/08 04:46:32;;;;;;;0.55;0.32;;;15.70;99.90;;;;;;5109554;27;20055;-69
2023/09/08 04:48:58;;;;;;;0.82;0.28;;;15.60;99.90;;;;;;5127679;27;20061;-69
2023/09/08 04:51:24;;;;;;;0.77;0.40;;;15.60;99.90;;;;;;5125311;27;20035;-69
2023/09/08 04:53:49;;;;;;;0.80;0.35;;;15.60;99.90;;;;;;5111221;27;20074;-69
2023/09/08 04:56:15;;;;;;;1.02;0.45;;;15.60;99.90;;;;;;5128920;27;20439;-69
2023/09/08 04:58:41;;;;;;;1.20;0.70;;;15.50;99.90;;;;;;5128811;27;20455;-69
2023/09/08 05:01:06;;;;;;;1.98;0.75;;;15.50;99.90;;;;;;5128171;27;20487;-69
2023/09/08 05:03:32;;;;;;;1.27;0.47;;;15.50;99.90;;;;;;5111764;27;20035;-69
2023/09/08 05:05:58;;;;;;;1.45;0.88;;;15.50;99.90;;;;;;5113159;27;20506;-69
2023/09/08 05:08:23;;;;;;;1.65;0.88;;;15.50;99.90;;;;;;5111740;27;20116;-68
2023/09/08 05:10:49;;;;;;;1.38;0.60;;;15.40;99.90;;;;;;5130573;27;20035;-69
2023/09/08 05:13:16;;;;;;;1.73;0.77;;;15.50;99.90;;;;;;5128193;27;20039;-68
2023/09/08 05:15:43;;;;;;;1.02;0.60;;;15.40;99.90;;;;;;5111267;27;20490;-68
2023/09/08 05:18:09;;;;;;;1.88;0.80;;;15.50;99.90;;;;;;5108875;27;20070;-68
2023/09/08 05:20:35;;;;;;;1.95;0.90;;;15.40;99.90;;;;;;5129261;27;20031;-68
2023/09/08 05:23:01;;;;;;;1.08;0.68;;;15.40;99.90;;;;;;5109531;27;20375;-69
2023/09/08 05:25:26;;;;;;;1.65;0.75;;;15.50;99.90;;;;;;5112076;27;20054;-69
2023/09/08 05:27:52;;;;;;;0.55;0.32;;;15.50;99.90;;;;;;5094095;27;20455;-68
2023/09/08 05:30:18;;;;;;;3.15;0.55;;;15.50;99.90;;;;;;5112624;27;20121;-69
2023/09/08 05:32:44;;;;;;;1.17;0.70;;;15.50;99.90;;;;;;5111649;27;20067;-69
2023/09/08 05:35:10;;;;;;;2.55;0.70;;;15.60;99.90;;;;;;5110024;27;20123;-69
2023/09/08 05:37:35;;;;;;;0.85;0.50;;;15.60;99.90;;;;;;5111559;27;20043;-68
2023/09/08 05:40:01;;;;;;;1.73;0.90;;;15.70;99.90;;;;;;5108838;27;20035;-68
2023/09/08 05:42:27;;;;;;;1.23;0.47;;;15.80;99.90;;;;;;5111783;27;20034;-68
2023/09/08 05:44:54;;;;;;;2.15;0.98;;;15.80;99.90;;;;;;5112927;27;20084;-69
2023/09/08 05:47:20;;;;;;;0.95;0.65;;;15.90;99.90;;;;;;5129212;27;20062;-68
2023/09/08 05:49:46;;;;;;;2.10;0.70;;;16.00;99.90;;;;;;5092448;27;20035;-68
2023/09/08 05:52:11;;;;;;;2.58;1.25;;;16.10;99.90;;;;;;5112201;27;20039;-68
2023/09/08 05:54:37;;;;;;;2.00;0.60;;;16.20;99.90;;;;;;5110481;27;20482;-68
2023/09/08 05:57:03;;;;;;;1.38;0.93;;;16.30;99.90;;;;;;5107772;27;20049;-68
2023/09/08 05:59:28;;;;;;;0.43;0.30;;;16.30;99.90;;;;;;5127629;27;20047;-68
2023/09/08 06:01:54;;;;;;;1.20;0.60;;;16.40;99.90;;;;;;5111248;27;20470;-68
2023/09/08 06:04:20;;;;;;;1.30;0.65;;;16.50;99.90;;;;;;5110643;27;20108;-68
2023/09/08 06:06:45;;;;;;;1.10;0.85;;;16.50;99.90;;;;;;5094211;27;20416;-68
2023/09/08 06:09:12;;;;;;;1.40;0.50;;;16.60;99.90;;;;;;5110318;27;20042;-68
2023/09/08 06:11:37;;;;;;;1.45;0.80;;;16.80;99.90;;;;;;5110693;27;20050;-68
2023/09/08 06:14:03;;;;;;;1.42;0.80;;;16.80;99.90;;;;;;5111626;27;20463;-68
2023/09/08 06:16:29;;;;;;;3.55;0.98;;;17.00;99.90;;;;;;5109092;27;20035;-68
2023/09/08 06:18:55;;;;;;;2.33;1.05;;;17.00;99.90;;;;;;5109026;27;20039;-68
2023/09/08 06:21:20;;;;;;;1.35;0.82;;;17.20;99.90;;;;;;5094473;27;20077;-68
2023/09/08 06:23:47;;;;;;;1.75;1.30;;;17.30;99.90;;;;;;5108909;27;20067;-68
2023/09/08 06:26:13;;;;;;;1.85;0.80;;;17.40;99.90;;;;;;5111040;27;20387;-68
2023/09/08 06:28:41;;;;;;;1.92;1.00;;;17.50;99.90;;;;;;5130461;27;20027;-68
2023/09/08 06:31:07;;;;;;;0.90;0.50;;;17.60;99.90;;;;;;5109998;27;20097;-69
2023/09/08 06:33:33;;;;;;;0.98;0.70;;;17.70;99.90;;;;;;5110884;27;20043;-68
2023/09/08 06:35:58;;;;;;;1.17;0.57;;;17.80;99.90;;;;;;5106352;27;20047;-68
2023/09/08 06:38:26;;;;;;;1.65;0.75;;;17.90;99.90;;;;;;5106012;27;20039;-68
2023/09/08 06:40:54;;;;;;;1.38;0.75;;;17.90;99.90;;;;;;5106609;27;20039;-69
2023/09/08 06:43:28;;;;;;;6.25;1.80;;;18.10;99.90;;;;;;5103171;27;20050;-68
2023/09/08 06:45:59;;;;;;;1.58;0.80;;;18.20;99.90;;;;;;5107871;27;20092;-69
2023/09/08 06:48:34;;;;;;;4.35;2.38;;;18.30;99.90;;;;;;5106734;27;20451;-69
2023/09/08 06:51:10;;;;;;;1.17;0.60;;;18.50;99.90;;;;;;5106344;27;20051;-67
2023/09/08 06:53:45;;;;;;;1.17;0.60;;;18.60;99.90;;;;;;5093045;27;20038;-67
2023/09/08 06:56:13;;;;;;;1.33;0.60;;;18.70;99.90;;;;;;5108830;27;20047;-69
2023/09/08 06:58:39;;;;;;;1.52;0.70;;;18.80;99.90;;;;;;5127743;27;20038;-68
2023/09/08 07:01:05;;;;;;;1.15;0.70;;;19.00;99.90;;;;;;5107315;27;20069;-68
2023/09/08 07:03:36;;;;;;;1.75;0.50;;;19.10;99.90;;;;;;5110856;27;20174;-68
2023/09/08 07:06:02;;;;;;;1.30;0.45;;;19.20;99.90;;;;;;5108408;27;20039;-69
2023/09/08 07:08:28;;;;;;;1.00;0.40;;;19.40;99.90;;;;;;5109345;27;20043;-68
2023/09/08 07:10:54;;;;;;;1.73;0.80;;;19.50;99.90;;;;;;5103903;27;20032;-68
2023/09/08 07:13:20;;;;;;;1.42;0.60;;;19.70;99.90;;;;;;5094680;27;20525;-69
2023/09/08 07:15:45;;;;;;;1.60;0.80;;;19.80;99.90;;;;;;5128864;27;20221;-68
2023/09/08 07:18:11;;;;;;;1.42;0.88;;;19.90;99.90;;;;;;5110659;27;20031;-68
2023/09/08 07:20:37;;;;;;;1.48;0.95;;;20.10;99.90;;;;;;5110625;27;20039;-68
2023/09/08 07:23:03;;;;;;;0.82;0.43;;;20.20;99.90;;;;;;5107887;27;20047;-68
2023/09/08 07:25:28;;;;;;;1.20;0.65;;;20.40;99.90;;;;;;5129393;27;20112;-68
2023/09/08 07:27:54;;;;;;;1.17;0.52;;;20.60;99.90;;;;;;5111552;27;20031;-69
2023/09/08 07:30:20;;;;;;;1.48;0.77;;;20.80;99.90;;;;;;5112021;27;20078;-68
2023/09/08 07:32:46;;;;;;;0.28;0.22;;;20.90;99.90;;;;;;5111635;28;20039;-69
2023/09/08 07:35:14;;;;;;;0.98;0.60;;;21.10;99.90;;;;;;5126899;28;20439;-69
2023/09/08 07:37:41;;;;;;;1.30;0.63;;;21.30;99.90;;;;;;5111931;28;20092;-68
2023/09/08 07:40:09;;;;;;;1.20;0.50;;;21.50;99.90;;;;;;5111824;28;20054;-68
2023/09/08 07:42:34;;;;;;;1.30;0.60;;;21.70;99.90;;;;;;5110065;28;20039;-68
2023/09/08 07:45:00;;;;;;;1.40;0.60;;;21.90;99.90;;;;;;5111755;28;20034;-69
2023/09/08 07:47:26;;;;;;;0.60;0.40;;;22.00;99.90;;;;;;5107797;28;20052;-68
2023/09/08 07:49:52;;;;;;;0.45;0.25;;;22.10;99.90;;;;;;5108296;28;20032;-68
2023/09/08 07:52:17;;;;;;;0.60;0.38;;;22.30;99.90;;;;;;5106631;28;20034;-69
2023/09/08 07:54:43;;;;;;;1.45;0.68;;;22.40;99.90;;;;;;5091410;28;20221;-69
2023/09/08 07:57:09;;;;;;;1.10;0.65;;;22.70;99.90;;;;;;5106105;28;20035;-68
2023/09/08 07:59:34;;;;;;;0.65;0.30;;;23.00;99.90;;;;;;5106466;28;20456;-68
2023/09/08 08:02:00;;;;;;;0.65;0.38;;;23.20;99.90;;;;;;5089168;28;20043;-68
2023/09/08 08:04:26;;;;;;;0.80;0.40;;;23.60;99.90;;;;;;5104898;28;20078;-68
2023/09/08 08:06:52;;;;;;;1.00;0.50;;;24.10;99.90;;;;;;5104378;28;20479;-68
2023/09/08 08:09:18;;;;;;;0.80;0.50;;;24.70;99.90;;;;;;5106312;28;20043;-68
2023/09/08 08:11:43;;;;;;;1.20;0.30;;;25.70;99.90;;;;;;5107522;28;20046;-68
2023/09/08 08:14:09;;;;;;;0.88;0.50;;;26.60;99.90;;;;;;5107564;28;20135;-68
2023/09/08 08:16:35;;;;;;;0.85;0.40;;;27.30;99.90;;;;;;5108559;28;20036;-68
2023/09/08 08:19:01;;;;;;;0.93;0.60;;;28.10;99.90;;;;;;5107090;28;20543;-68
2023/09/08 08:21:27;;;;;;;1.38;0.60;;;28.60;99.90;;;;;;5106690;28;20119;-69
2023/09/08 08:23:52;;;;;;;0.52;0.20;;;29.20;99.90;;;;;;5107457;28;20066;-68
2023/09/08 08:26:18;;;;;;;0.82;0.40;;;29.70;99.90;;;;;;5107477;28;20430;-69
2023/09/08 08:28:44;;;;;;;0.57;0.30;;;30.10;99.90;;;;;;5109762;28;20043;-69
2023/09/08 08:31:09;;;;;;;0.88;0.45;;;30.40;99.90;;;;;;5109646;28;20078;-68
2023/09/08 08:33:35;;;;;;;1.05;0.40;;;30.60;99.90;;;;;;5109241;28;20403;-69
2023/09/08 08:36:01;;;;;;;1.10;0.47;;;30.90;99.90;;;;;;5112235;27;20058;-68
2023/09/08 08:38:27;;;;;;;1.30;0.65;;;31.20;99.90;;;;;;5110641;28;20042;-69
2023/09/08 08:40:52;;;;;;;1.13;0.40;;;31.40;99.90;;;;;;5112512;28;20038;-69
2023/09/08 08:43:19;;;;;;;0.70;0.50;;;31.50;99.90;;;;;;5108356;28;20031;-69
2023/09/08 08:45:47;;;;;;;0.30;0.20;;;31.40;95.80;;;;;;5107604;28;20032;-68
2023/09/08 08:48:14;;;;;;;1.02;0.30;;;31.50;91.80;;;;;;5107256;28;20063;-69
2023/09/08 08:50:42;;;;;;;0.95;0.38;;;31.70;95.00;;;;;;5108398;28;20039;-68
2023/09/08 08:53:08;;;;;;;0.55;0.30;;;32.10;94.00;;;;;;5112426;28;20448;-69
2023/09/08 08:55:35;;;;;;;1.42;0.38;;;32.30;90.40;;;;;;5109393;28;20066;-73
2023/09/08 08:58:05;;;;;;;1.13;0.30;;;32.60;88.00;;;;;;5108011;28;20078;-74
2023/09/08 09:00:35;;;;;;;1.38;0.55;;;32.80;84.60;;;;;;5105468;28;20035;-75
2023/09/08 09:03:03;;;;;;;0.85;0.50;;;32.90;90.50;;;;;;5108116;28;20036;-75
2023/09/08 09:05:30;;;;;;;0.80;0.28;;;33.00;86.90;;;;;;5106552;28;20040;-74
2023/09/08 09:07:58;;;;;;;0.45;0.28;;;33.00;88.80;;;;;;5112795;27;20043;-74
2023/09/08 09:10:24;;;;;;;0.73;0.20;;;33.00;84.30;;;;;;5108909;28;20036;-75
2023/09/08 09:12:49;;;;;;;0.85;0.28;;;33.10;86.30;;;;;;5107285;28;20110;-74
2023/09/08 09:15:16;;;;;;;0.35;0.20;;;33.10;84.60;;;;;;5108112;28;20192;-74
2023/09/08 09:17:42;;;;;;;1.23;0.40;;;33.20;79.60;;;;;;5110371;28;20071;-74
2023/09/08 09:20:15;;;;;;;0.70;0.40;;;33.40;84.50;;;;;;5109300;28;20131;-75
2023/09/08 09:22:41;;;;;;;0.40;0.20;;;33.40;76.80;;;;;;5108713;28;20036;-75
2023/09/08 09:25:07;;;;;;;0.40;0.25;;;33.70;80.50;;;;;;5110898;28;20056;-74
2023/09/08 09:27:38;;;;;;;0.70;0.25;;;33.90;78.00;;;;;;5100062;28;20040;-75
2023/09/08 09:30:05;;;;;;;0.77;0.35;;;34.20;80.00;;;;;;5109226;28;20040;-74
2023/09/08 09:32:31;;;;;;;0.60;0.30;;;34.20;78.20;;;;;;5108200;28;20035;-74
2023/09/08 09:35:00;;;;;;;0.40;0.30;;;34.30;75.50;;;;;;5109534;28;20108;-75
2023/09/08 09:37:26;;;;;;;0.10;0.10;;;34.30;76.90;;;;;;5111577;28;20073;-75
2023/09/08 09:39:54;;;;;;;0.93;0.38;;;34.40;75.70;;;;;;5114129;28;20039;-75
2023/09/08 09:42:23;;;;;;;0.40;0.22;;;34.50;74.40;;;;;;5110366;28;20063;-74
2023/09/08 09:44:51;;;;;;;2.30;1.00;;;34.30;66.50;;;;;;5109186;28;20131;-75
2023/09/08 09:47:20;;;;;;;0.80;0.28;;;34.10;70.90;;;;;;5112082;27;20044;-75
2023/09/08 09:49:47;;;;;;;0.70;0.28;;;34.00;69.10;;;;;;5094360;27;20439;-76
2023/09/08 09:52:14;;;;;;;0.50;0.25;;;34.10;70.20;;;;;;5092964;27;20463;-75
2023/09/08 09:54:43;;;;;;;0.55;0.32;;;34.10;68.50;;;;;;5112225;27;20039;-75
2023/09/08 09:57:14;;;;;;;0.70;0.20;;;34.20;69.40;;;;;;5109862;27;20043;-74
2023/09/08 09:59:43;;;;;;;1.95;0.50;;;34.40;67.40;;;;;;5111483;27;20043;-76
2023/09/08 10:02:13;;;;;;;0.35;0.17;;;34.30;62.80;;;;;;5115614;27;20406;-77
2023/09/08 10:04:43;;;;;;;2.83;0.50;;;34.10;67.30;;;;;;5118880;27;20039;-77
2023/09/08 10:07:08;;;;;;;0.70;0.30;;;34.10;69.00;;;;;;5101153;27;20114;-76
2023/09/08 10:09:36;;;;;;;0.43;0.20;;;34.30;70.70;;;;;;5116971;27;20070;-76
2023/09/08 10:12:08;;;;;;;0.98;0.20;;;34.40;64.10;;;;;;5118644;27;20031;-76
2023/09/08 10:14:37;;;;;;;0.47;0.20;;;34.30;66.10;;;;;;5118211;27;20106;-76
2023/09/08 10:17:08;;;;;;;0.75;0.30;;;34.10;65.70;;;;;;5101339;27;20156;-76
2023/09/08 10:19:41;;;;;;;0.70;0.30;;;34.10;61.30;;;;;;5115575;27;20088;-76
2023/09/08 10:22:09;;;;;;;;;;;33.90;59.30;;;;;;5117434;27;20051;-76
2023/09/08 10:24:38;;;;;;;0.75;0.38;;;33.80;61.90;;;;;;5115513;27;19915;-76
2023/09/08 10:27:11;;;;;;;0.80;0.20;;;33.80;63.80;;;;;;5122058;27;20035;-76
2023/09/08 10:29:38;;;;;;;0.70;0.30;;;33.60;62.80;;;;;;5115852;27;20046;-76
2023/09/08 10:32:06;;;;;;;0.38;0.20;;;33.60;62.90;;;;;;5099739;27;20031;-76
2023/09/08 10:34:33;;;;;;;0.75;0.20;;;33.70;63.70;;;;;;5115313;27;20470;-76
2023/09/08 10:36:59;;;;;;;0.77;0.30;;;33.90;66.70;;;;;;5115662;27;20035;-76
2023/09/08 10:39:38;;;;;;;0.22;0.15;;;33.90;59.70;;;;;;5115603;27;20068;-75
2023/09/08 10:42:16;;;;;;;0.20;0.20;;;34.10;61.60;;;;;;5115211;27;20123;-76
2023/09/08 10:44:47;;;;;;;0.45;0.20;;;34.10;60.50;;;;;;5098873;27;20039;-76
2023/09/08 10:47:18;;;;;;;0.60;0.20;;;34.30;64.30;;;;;;5111818;27;20079;-76
2023/09/08 10:49:43;;;;;;;0.68;0.20;;;34.40;61.60;;;;;;5107705;28;20039;-77
2023/09/08 10:52:11;;;;;;;0.50;0.20;;;34.40;60.80;;;;;;5112421;27;20035;-77
2023/09/08 10:54:54;;;;;;;0.65;0.20;;;34.40;63.20;;;;;;5113044;27;20067;-77
2023/09/08 10:57:25;;;;;;;;;;;34.60;60.40;;;;;;5110000;27;20108;-78
2023/09/08 10:59:56;;;;;;;0.50;0.22;;;34.70;60.60;;;;;;5118885;27;20471;-77
2023/09/08 11:02:35;;;;;;;0.52;0.25;;;34.70;63.20;;;;;;5108815;27;20039;-79
2023/09/08 11:05:13;;;;;;;0.55;0.20;;;34.70;59.40;;;;;;5107472;27;20110;-78
2023/09/08 11:07:40;;;;;;;0.55;0.10;;;34.80;57.40;;;;;;5107757;27;20043;-78
2023/09/08 11:10:07;;;;;;;1.08;0.15;;;34.90;60.30;;;;;;5109554;27;20104;-78
2023/09/08 11:12:33;;;;;;;0.32;0.20;;;35.10;60.30;;;;;;5111120;27;20035;-78
2023/09/08 11:15:07;;;;;;;0.90;0.13;;;35.30;61.00;;;;;;5092891;27;20540;-78
2023/09/08 11:17:39;;;;;;;0.30;0.13;;;35.40;59.00;;;;;;5110503;28;20043;-78
2023/09/08 11:20:10;;;;;;;0.40;0.15;;;35.50;53.70;;;;;;5110587;27;20063;-78
2023/09/08 11:22:40;;;;;;;0.95;0.20;;;35.60;55.40;;;;;;5109588;27;20039;-78
2023/09/08 11:25:12;;;;;;;0.17;0.10;;;35.60;56.40;;;;;;5110260;28;20038;-78
2023/09/08 11:27:41;;;;;;;0.15;0.10;;;35.80;57.60;;;;;;5107996;27;20152;-78
2023/09/08 11:30:13;;;;;;;0.68;0.20;;;35.90;55.70;;;;;;5138590;27;20113;-77
2023/09/08 11:32:38;;;;;;;1.35;0.30;;;36.00;54.60;;;;;;5088720;28;20490;-78
2023/09/08 11:35:09;;;;;;;1.10;0.20;;;36.10;55.60;;;;;;5113984;28;20049;-77
2023/09/08 11:37:39;;;;;;;0.32;0.10;;;36.30;55.70;;;;;;5105154;28;20119;-76
2023/09/08 11:40:13;;;;;;;0.90;0.28;;;36.40;53.20;;;;;;5114232;28;20039;-76
2023/09/08 11:42:46;;;;;;;0.68;0.20;;;36.40;53.60;;;;;;5106244;28;20043;-77
2023/09/08 11:45:17;;;;;;;0.73;0.30;;;36.40;52.20;;;;;;5108614;28;20039;-76
2023/09/08 11:47:43;;;;;;;0.70;0.10;;;36.40;51.50;;;;;;5112459;28;20056;-75
2023/09/08 11:50:15;;;;;;;0.73;0.20;;;36.50;49.80;;;;;;5111877;28;20530;-76
2023/09/08 11:52:51;;;;;;;0.67;0.20;;;36.50;52.70;;;;;;5110944;28;20069;-76
2023/09/08 11:55:18;;;;;;;0.98;0.25;;;36.60;49.50;;;;;;5112454;28;20498;-76
2023/09/08 11:57:50;;;;;;;0.43;0.20;;;36.70;51.40;;;;;;5107623;28;20051;-77
2023/09/08 12:00:22;;;;;;;0.13;0.10;;;36.80;50.10;;;;;;5111463;28;20035;-78
2023/09/08 12:02:48;;;;;;;0.85;0.10;;;36.80;50.50;;;;;;5110274;27;20054;-77
2023/09/08 12:05:22;;;;;;;1.38;0.17;;;36.80;47.50;;;;;;5109292;27;20039;-77
2023/09/08 12:07:53;;;;;;;0.55;0.13;;;36.80;48.50;;;;;;5110160;27;20378;-78
2023/09/08 12:10:19;;;;;;;0.17;0.13;;;37.10;50.60;;;;;;5112733;27;20039;-78
2023/09/08 12:12:46;;;;;;;0.20;0.10;;;37.00;49.00;;;;;;5113682;27;20103;-79
2023/09/08 12:15:55;;;;;;;0.47;0.30;;;36.90;49.20;;;;;;5111870;27;20031;-79
2023/09/08 12:18:38;;;;;;;0.50;0.10;;;36.80;46.70;;;;;;5110337;27;20384;-76
2023/09/08 12:21:05;;;;;;;0.28;0.20;;;36.90;45.10;;;;;;5112710;27;20046;-78
2023/09/08 12:23:30;;;;;;;0.85;0.40;;;37.10;49.30;;;;;;5108673;27;20035;-79
2023/09/08 12:25:57;;;;;;;0.15;0.00;;;37.00;46.90;;;;;;5109101;27;20470;-78
2023/09/08 12:28:30;;;;;;;0.82;0.17;;;37.30;49.20;;;;;;5112342;27;20063;-78
2023/09/08 12:30:55;;;;;;;0.40;0.20;;;37.50;47.30;;;;;;5130012;27;20039;-79
2023/09/08 12:33:21;;;;;;;0.45;0.25;;;37.80;45.60;;;;;;5109208;27;20454;-78
2023/09/08 12:35:53;;;;;;;0.38;0.20;;;37.60;47.40;;;;;;5106538;27;20482;-78
2023/09/08 12:38:19;;;;;;;0.43;0.20;;;37.60;47.80;;;;;;5085962;27;20038;-79
2023/09/08 12:40:44;;;;;;;0.20;0.10;;;37.50;47.30;;;;;;5107482;27;20087;-78
2023/09/08 12:43:10;;;;;;;0.68;0.20;;;37.40;47.30;;;;;;5106049;27;20043;-78
2023/09/08 12:45:36;;;;;;;0.50;0.20;;;37.30;46.20;;;;;;5105796;27;20047;-79
2023/09/08 12:48:03;;;;;;;1.35;0.30;;;37.20;47.20;;;;;;5087562;27;20498;-77